Strathclair, Canada
Current Conditions -  °F | °C
As of 11:00 AM on Thursday 18 Dec 2014 (Local Time) from CYBR Reporting Station
Broken Clouds Broken Clouds  
Wind Chill:   Ceiling: 24000
Heat Index:   Visibility: 8mi
Dew Point:   Wind: 3mph
Humidity: 85%   Direction: 80°E
Pressure: 30.12"   Gusts: NA
Location:  50.4°N, 100.4°W
Report Text: CYBR 181700Z 08003KT 8SM FEW002 BKN240 M16/M18 A3012 RMK ST1CI6 BR SLP244
Loading
Personal Weather Stations






























Interactive Weather Map New forecast layout! Learn more

10-Day Weather Forecast

Advertisements
Track Severe Weather on mobile